Nouméa, Nouvelle-Calédonie

12:38 NCT le 23 octobre 2014 (GMT +1100)
Port Moselle | Change Station
CLOSE
Current Station
Stations météorologiques personnelles
Location: Nouméa, PROVINCE SUD
Altitude: 33 ft
Stations météo à proximité

Alt. 33 ft 22.28 °S, 166.44 °E | Updated 2 minutes ago

Partly Cloudy
Partiellement nuageux
73.5 ° F
Paraît 76 ° F
N
13.0
Vent Variable Vent de ESE
Gusts 24.0 mph

Aujourd'hui
Haut(e) -- | Bas -- ° F
--% Risque de précip.
Hier
Haut(e) -- | Bas -- ° F
Precip. -- pouce
5:16 AM 6:01 PM
Lune descendante, 1% visible
Pression 29.98 pouce
Visibilité 6.2 Miles terrestres
Nuages Peu 4700 ft
indice de chaleur 76 ° F
Point de rosée 60 ° F
Humidité 62%
Précipitations 0.00 pouce
Profondeur de la couche neigeuse Non disponible.
UV 11 sur 12
Pollen Non disponible.
Qualité de l'air Non disponible.
Flu Activity Non disponible.
METAR NWWW 230130Z AUTO 14013KT 110V170 9999 FEW047/// 26/15 Q1015

More Conditions Fewer Conditions

Pression 29.98 pouce
Visibilité 6.2 Miles terrestres
Nuages Peu 4700 ft
indice de chaleur 76 ° F
Point de rosée 60 ° F
Humidité 62%
Précipitations 0.00 pouce
Profondeur de la couche neigeuse Non disponible.
UV 11 sur 12
Pollen Non disponible.
Qualité de l'air Non disponible.
Flu Activity Non disponible.
METAR NWWW 230130Z AUTO 14013KT 110V170 9999 FEW047/// 26/15 Q1015

More Conditions Fewer Conditions

10-Day Weather Forecast

Almanac

Astronomie

Oct. 23, 2014 Lever Coucher
Temps réel 05:16 NCT 18:01 NCT
Crépuscule civil 04:53 NCT 18:24 NCT
Crépuscule nautique 04:26 NCT 18:51 NCT
Crépuscule astronomique 03:58 NCT 19:18 NCT
Lune 04:36 NCT 17:23 NCT
Durée de lumière visible 13h 30m
Longueur du jour
12h 44m
Tomorrow will be 1m 13s longer.
Lune descendante, 1% of the Moon is Illuminated
Oct 22
Lune descendante
Oct 23
Nouveau
Oct 30
Premier quartier
Nov 6
Pleine lune
Nov 14
Dernier quartier

Les extrêmes de température d’hier

Country Highs Country Lows

Community

WunderPhotos

Upload Photos

1,764,106 Photos téléchargées !

Nearby

Qualité de l'air

Not available.

Épaisseur de neige

Not available.

Activité sismique

Ville Distance Mag. Time & Date
No recent earthquake activity has been reported nearby.
Minimum magnitude displayed is 2.5.

Températures des eaux côtières

Lieu Température
Aucun rapport de station

Stations météo à proximité